Time;durP1;ratioP1;P1;durP2;ratioP2;P2;SDS_P1;SDS_P2;PMS_P1;PMS_P2;Temp;Humidity;BMP_temperature;BMP_pressure;BME280_temperature;BME280_humidity;BME280_pressure;Samples;Min_cycle;Max_cycle;Signal;HPM_P1;HPM_P2
2022/03/17 00:02:18;;;;;;;44.67;27.83;;;8.30;99.90;;;;;;5117928;28;20456;-71
2022/03/17 00:04:45;;;;;;;46.53;28.87;;;8.30;99.90;;;;;;5118146;28;20807;-72
2022/03/17 00:07:12;;;;;;;47.03;28.17;;;8.30;99.90;;;;;;5117750;28;20878;-70
2022/03/17 00:09:40;;;;;;;46.07;29.37;;;8.30;99.90;;;;;;5118162;28;20642;-72
2022/03/17 00:12:08;;;;;;;44.10;28.23;;;8.30;99.90;;;;;;5118119;28;20768;-71
2022/03/17 00:14:35;;;;;;;44.53;29.47;;;8.20;99.90;;;;;;5118186;28;20492;-72
2022/03/17 00:17:02;;;;;;;47.43;29.83;;;8.20;99.90;;;;;;5118045;28;20456;-71
2022/03/17 00:19:30;;;;;;;42.27;29.03;;;8.20;99.90;;;;;;5117792;28;20480;-71
2022/03/17 00:21:57;;;;;;;45.97;30.77;;;8.20;99.90;;;;;;5117631;28;20502;-71
2022/03/17 00:24:23;;;;;;;45.70;30.50;;;8.20;99.90;;;;;;5117781;28;20452;-71
2022/03/17 00:26:52;;;;;;;46.33;29.00;;;8.20;99.90;;;;;;5117849;28;20452;-71
2022/03/17 00:29:19;;;;;;;41.27;27.97;;;8.20;99.90;;;;;;5118015;28;20452;-71
2022/03/17 00:31:45;;;;;;;48.40;29.40;;;8.20;99.90;;;;;;5117706;28;20910;-72
2022/03/17 00:34:12;;;;;;;50.67;29.77;;;8.20;99.90;;;;;;5117578;28;20464;-71
2022/03/17 00:36:38;;;;;;;45.70;30.30;;;8.20;99.90;;;;;;5116587;28;20786;-70
2022/03/17 00:39:08;;;;;;;47.60;29.80;;;8.20;99.90;;;;;;5117284;28;20780;-73
2022/03/17 00:41:35;;;;;;;50.10;29.77;;;8.20;99.90;;;;;;5117027;28;20945;-71
2022/03/17 00:44:09;;;;;;;49.70;31.33;;;8.20;99.90;;;;;;5118049;28;20751;-71
2022/03/17 00:46:36;;;;;;;45.47;29.30;;;8.10;99.90;;;;;;5117199;28;20448;-72
2022/03/17 00:49:02;;;;;;;48.60;30.70;;;8.10;99.90;;;;;;5117611;28;20778;-70
2022/03/17 00:51:31;;;;;;;46.27;30.23;;;8.10;99.90;;;;;;5117334;28;20479;-71
2022/03/17 00:53:58;;;;;;;45.30;29.67;;;8.10;99.90;;;;;;5116952;28;20484;-71
2022/03/17 00:56:25;;;;;;;42.50;29.60;;;8.10;99.90;;;;;;5117373;28;20541;-71
2022/03/17 00:58:51;;;;;;;48.10;31.30;;;8.00;99.90;;;;;;5117079;28;20456;-71
2022/03/17 01:01:19;;;;;;;46.93;30.40;;;8.10;99.90;;;;;;5117993;28;20456;-70
2022/03/17 01:03:47;;;;;;;42.97;30.37;;;8.10;99.90;;;;;;5118211;28;20942;-71
2022/03/17 01:06:14;;;;;;;47.23;31.10;;;8.10;99.90;;;;;;5116974;28;20980;-70
2022/03/17 01:08:41;;;;;;;47.00;31.87;;;8.10;99.90;;;;;;5117145;28;20550;-72
2022/03/17 01:11:08;;;;;;;46.83;30.20;;;8.00;99.90;;;;;;5116816;28;20783;-71
2022/03/17 01:13:35;;;;;;;44.27;29.50;;;8.00;99.90;;;;;;5117065;28;20779;-71
2022/03/17 01:16:02;;;;;;;51.53;32.53;;;7.90;99.90;;;;;;5117105;28;20555;-71
2022/03/17 01:18:30;;;;;;;46.63;30.13;;;8.00;99.90;;;;;;5116536;28;20452;-71
2022/03/17 01:20:57;;;;;;;48.53;30.70;;;8.00;99.90;;;;;;5116158;28;20476;-70
2022/03/17 01:23:24;;;;;;;45.90;31.53;;;7.90;99.90;;;;;;5116638;28;20453;-71
2022/03/17 01:25:50;;;;;;;48.33;31.80;;;7.90;99.90;;;;;;5116717;28;20452;-71
2022/03/17 01:28:17;;;;;;;47.70;31.60;;;7.90;99.90;;;;;;5116552;28;20498;-71
2022/03/17 01:30:44;;;;;;;48.97;30.80;;;7.90;99.90;;;;;;5116371;28;20525;-70
2022/03/17 01:33:10;;;;;;;48.20;32.67;;;7.90;99.90;;;;;;5116601;28;20460;-71
2022/03/17 01:35:39;;;;;;;47.83;32.67;;;7.90;99.90;;;;;;5116683;28;20457;-71
2022/03/17 01:38:05;;;;;;;49.73;32.27;;;7.90;99.90;;;;;;5116627;28;20657;-71
2022/03/17 01:40:32;;;;;;;47.00;31.93;;;7.90;99.90;;;;;;5115952;28;20480;-71
2022/03/17 01:42:59;;;;;;;48.60;30.73;;;7.90;99.90;;;;;;5116365;28;20910;-71
2022/03/17 01:45:26;;;;;;;52.50;31.73;;;7.80;99.90;;;;;;5116707;28;20460;-71
2022/03/17 01:47:53;;;;;;;45.60;30.27;;;7.80;99.90;;;;;;5116279;28;20760;-71
2022/03/17 01:50:20;;;;;;;46.40;31.73;;;7.80;99.90;;;;;;5117117;28;20452;-70
2022/03/17 01:52:48;;;;;;;47.77;31.47;;;7.80;99.90;;;;;;5117769;28;20488;-71
2022/03/17 01:55:17;;;;;;;50.10;31.63;;;7.70;99.90;;;;;;5117564;28;20464;-71
2022/03/17 01:57:44;;;;;;;51.50;32.97;;;7.70;99.90;;;;;;5116747;28;20460;-71
2022/03/17 02:00:17;;;;;;;49.20;32.43;;;7.70;99.90;;;;;;5116421;28;20475;-70
2022/03/17 02:02:48;;;;;;;84.40;51.97;;;7.70;99.90;;;;;;5116498;28;20431;-71
2022/03/17 02:05:19;;;;;;;55.17;34.97;;;7.70;99.90;;;;;;5116542;28;20452;-70
2022/03/17 02:07:48;;;;;;;55.70;36.07;;;7.70;99.90;;;;;;5116355;28;20467;-70
2022/03/17 02:10:16;;;;;;;49.77;33.23;;;7.70;99.90;;;;;;5116335;28;20475;-71
2022/03/17 02:15:28;;;;;;;47.77;32.33;;;7.70;99.90;;;;;;5115869;28;20490;-71
2022/03/17 02:17:55;;;;;;;51.17;33.70;;;7.60;99.90;;;;;;5115722;28;20452;-71
2022/03/17 02:20:24;;;;;;;51.00;34.60;;;7.60;99.90;;;;;;5115402;28;20566;-71
2022/03/17 02:22:52;;;;;;;49.67;34.10;;;7.60;99.90;;;;;;5115461;28;20930;-71
2022/03/17 02:25:36;;;;;;;47.53;33.13;;;7.60;99.90;;;;;;5115455;28;20456;-72
2022/03/17 02:28:05;;;;;;;48.27;33.17;;;7.60;99.90;;;;;;5115591;28;20481;-71
2022/03/17 02:30:34;;;;;;;50.03;33.70;;;7.60;99.90;;;;;;5115507;28;20516;-71
2022/03/17 02:33:02;;;;;;;54.53;34.03;;;7.50;99.90;;;;;;5115458;28;20662;-71
2022/03/17 02:35:32;;;;;;;49.63;34.17;;;7.50;99.90;;;;;;5115371;28;20453;-71
2022/03/17 02:38:02;;;;;;;49.83;33.30;;;7.50;99.90;;;;;;5115207;28;20492;-70
2022/03/17 02:40:30;;;;;;;52.63;33.77;;;7.50;99.90;;;;;;5115281;28;20784;-70
2022/03/17 02:42:58;;;;;;;46.63;33.73;;;7.50;99.90;;;;;;5115447;28;20463;-72
2022/03/17 02:45:25;;;;;;;54.53;32.80;;;7.50;99.90;;;;;;5115035;28;20456;-71
2022/03/17 02:47:51;;;;;;;54.43;35.93;;;7.40;99.90;;;;;;5115046;28;20457;-70
2022/03/17 02:50:18;;;;;;;55.50;34.63;;;7.40;99.90;;;;;;5115318;28;20457;-70
2022/03/17 02:52:45;;;;;;;53.20;33.40;;;7.40;99.90;;;;;;5114958;28;20485;-72
2022/03/17 02:55:14;;;;;;;55.27;35.07;;;7.40;99.90;;;;;;5115084;28;20452;-71
2022/03/17 02:57:44;;;;;;;46.97;33.63;;;7.40;99.90;;;;;;5115017;28;20840;-70
2022/03/17 03:00:13;;;;;;;54.80;35.20;;;7.40;99.90;;;;;;5115088;28;20809;-70
2022/03/17 03:02:40;;;;;;;50.70;33.93;;;7.40;99.90;;;;;;5115064;28;20452;-70
2022/03/17 03:05:08;;;;;;;58.00;36.10;;;7.40;99.90;;;;;;5114961;28;20761;-71
2022/03/17 03:07:35;;;;;;;56.60;35.87;;;7.40;99.90;;;;;;5115032;28;20459;-71
2022/03/17 03:10:02;;;;;;;52.10;35.10;;;7.40;99.90;;;;;;5114780;28;20532;-71
2022/03/17 03:12:28;;;;;;;54.57;36.13;;;7.40;99.90;;;;;;5114941;28;20480;-70
2022/03/17 03:14:56;;;;;;;46.97;32.13;;;7.30;99.90;;;;;;5114830;28;20460;-71
2022/03/17 03:17:25;;;;;;;54.67;35.70;;;7.30;99.90;;;;;;5114672;28;20460;-71
2022/03/17 03:19:52;;;;;;;54.50;35.10;;;7.30;99.90;;;;;;5114670;28;20538;-70
2022/03/17 03:22:19;;;;;;;51.90;35.60;;;7.30;99.90;;;;;;5114728;28;20775;-71
2022/03/17 03:24:47;;;;;;;55.67;36.90;;;7.30;99.90;;;;;;5114184;28;20934;-72
2022/03/17 03:27:14;;;;;;;52.63;33.83;;;7.40;99.90;;;;;;5114601;28;20460;-71
2022/03/17 03:29:41;;;;;;;52.43;35.50;;;7.30;99.90;;;;;;5114618;28;20459;-70
2022/03/17 03:32:09;;;;;;;58.10;36.70;;;7.30;99.90;;;;;;5114426;28;20453;-71
2022/03/17 03:34:36;;;;;;;57.57;36.03;;;7.30;99.90;;;;;;5114349;28;20460;-70
2022/03/17 03:39:47;;;;;;;56.90;36.23;;;7.30;99.90;;;;;;5114213;28;20605;-71
2022/03/17 03:42:14;;;;;;;54.57;35.00;;;7.20;99.90;;;;;;5114525;28;20576;-70
2022/03/17 03:44:41;;;;;;;51.50;35.50;;;7.20;99.90;;;;;;5114483;28;20460;-69
2022/03/17 03:47:10;;;;;;;54.90;35.80;;;7.20;99.90;;;;;;5114300;28;20452;-71
2022/03/17 03:49:39;;;;;;;56.50;36.13;;;7.20;99.90;;;;;;5114237;28;20449;-70
2022/03/17 03:52:06;;;;;;;56.07;36.30;;;7.20;99.90;;;;;;5114767;28;20547;-70
2022/03/17 03:54:33;;;;;;;51.23;35.53;;;7.20;99.90;;;;;;5116671;28;20448;-71
2022/03/17 03:57:00;;;;;;;54.03;36.20;;;7.30;99.90;;;;;;5119292;28;20521;-70
2022/03/17 03:59:29;;;;;;;56.43;37.47;;;7.20;99.90;;;;;;5118695;28;20983;-71
2022/03/17 04:01:58;;;;;;;53.10;36.23;;;7.20;99.90;;;;;;5116055;28;20476;-69
2022/03/17 04:04:27;;;;;;;50.03;36.10;;;7.10;99.90;;;;;;5114736;28;20806;-70
2022/03/17 04:06:58;;;;;;;55.60;37.07;;;7.10;99.90;;;;;;5114510;28;20448;-70
2022/03/17 04:09:27;;;;;;;54.77;36.57;;;7.10;99.90;;;;;;5114376;28;20440;-70
2022/03/17 04:11:54;;;;;;;55.40;36.70;;;7.10;99.90;;;;;;5115976;28;20448;-70
2022/03/17 04:14:21;;;;;;;58.50;38.77;;;7.10;99.90;;;;;;5117995;28;20793;-71
2022/03/17 04:16:48;;;;;;;55.50;37.27;;;7.10;99.90;;;;;;5118119;28;20463;-70
2022/03/17 04:19:16;;;;;;;58.60;38.33;;;7.10;99.90;;;;;;5118487;28;20452;-71
2022/03/17 04:21:45;;;;;;;52.43;36.67;;;7.10;99.90;;;;;;5117673;28;20541;-71
2022/03/17 04:24:12;;;;;;;58.50;38.07;;;7.10;99.90;;;;;;5117743;28;20456;-71
2022/03/17 04:26:39;;;;;;;56.10;37.97;;;7.10;99.90;;;;;;5118300;28;20452;-71
2022/03/17 04:29:06;;;;;;;62.43;38.20;;;7.10;99.90;;;;;;5118020;28;20472;-71
2022/03/17 04:31:34;;;;;;;58.80;37.30;;;7.10;99.90;;;;;;5118938;28;20758;-71
2022/03/17 04:34:01;;;;;;;58.27;38.30;;;7.10;99.90;;;;;;5118619;28;20502;-71
2022/03/17 04:36:28;;;;;;;54.00;37.37;;;7.00;99.90;;;;;;5117657;28;20766;-71
2022/03/17 04:38:56;;;;;;;61.10;40.73;;;7.00;99.90;;;;;;5117483;28;20463;-71
2022/03/17 04:41:22;;;;;;;55.40;38.40;;;7.00;99.90;;;;;;5117398;28;20483;-70
2022/03/17 04:43:50;;;;;;;59.47;40.37;;;7.00;99.90;;;;;;5117018;28;20906;-71
2022/03/17 04:46:17;;;;;;;61.63;40.23;;;7.00;99.90;;;;;;5117000;28;20453;-70
2022/03/17 04:48:44;;;;;;;59.57;39.20;;;7.00;99.90;;;;;;5117340;28;20868;-71
2022/03/17 04:51:10;;;;;;;56.97;38.30;;;6.90;99.90;;;;;;5117395;28;20453;-70
2022/03/17 04:53:37;;;;;;;58.83;39.40;;;6.90;99.90;;;;;;5116902;28;20492;-71
2022/03/17 04:56:08;;;;;;;60.33;38.97;;;6.90;99.90;;;;;;5116824;28;20456;-71
2022/03/17 04:58:36;;;;;;;66.47;41.13;;;6.90;99.90;;;;;;5117197;28;20971;-70
2022/03/17 05:01:04;;;;;;;59.70;39.77;;;6.80;99.90;;;;;;5117348;28;20643;-71
2022/03/17 05:03:34;;;;;;;64.67;40.17;;;6.80;99.90;;;;;;5116960;28;20891;-71
2022/03/17 05:06:02;;;;;;;60.40;39.70;;;6.70;99.90;;;;;;5117460;28;20437;-70
2022/03/17 05:08:29;;;;;;;60.70;41.43;;;6.70;99.90;;;;;;5116641;28;20465;-71
2022/03/17 05:10:56;;;;;;;64.07;40.70;;;6.70;99.90;;;;;;5116937;28;20448;-69
2022/03/17 05:13:24;;;;;;;61.50;40.60;;;6.70;99.90;;;;;;5116821;28;20540;-69
2022/03/17 05:15:52;;;;;;;57.27;39.60;;;6.70;99.90;;;;;;5116750;28;20833;-69
2022/03/17 05:18:19;;;;;;;65.27;40.77;;;6.70;99.90;;;;;;5117025;28;20449;-69
2022/03/17 05:20:47;;;;;;;66.90;42.57;;;6.70;99.90;;;;;;5116658;28;20579;-70
2022/03/17 05:23:15;;;;;;;62.53;40.73;;;6.80;99.90;;;;;;5117607;28;20452;-69
2022/03/17 05:25:43;;;;;;;64.87;41.50;;;6.70;99.90;;;;;;5118562;28;20453;-69
2022/03/17 05:28:11;;;;;;;64.03;42.77;;;6.70;99.90;;;;;;5119243;28;20452;-68
2022/03/17 05:30:40;;;;;;;67.07;41.20;;;6.60;99.90;;;;;;5117254;28;20480;-68
2022/03/17 05:33:08;;;;;;;60.90;40.27;;;6.70;99.90;;;;;;5116347;28;20918;-69
2022/03/17 05:35:35;;;;;;;64.80;42.87;;;6.60;99.90;;;;;;5116455;28;20551;-69
2022/03/17 05:38:02;;;;;;;69.90;43.40;;;6.60;99.90;;;;;;5116361;28;20452;-69
2022/03/17 05:40:29;;;;;;;64.27;42.60;;;6.70;99.90;;;;;;5115961;28;20570;-69
2022/03/17 05:42:58;;;;;;;63.67;42.57;;;6.70;99.90;;;;;;5116101;28;20588;-69
2022/03/17 05:45:27;;;;;;;66.57;43.53;;;6.70;99.90;;;;;;5116134;28;20456;-69
2022/03/17 05:47:57;;;;;;;66.27;42.10;;;6.70;99.90;;;;;;5116227;28;20484;-69
2022/03/17 05:50:26;;;;;;;60.30;39.87;;;6.70;99.90;;;;;;5115871;28;20445;-70
2022/03/17 05:52:52;;;;;;;73.90;43.07;;;6.70;99.90;;;;;;5115541;28;20491;-69
2022/03/17 05:55:20;;;;;;;70.17;41.50;;;6.70;99.90;;;;;;5115410;28;20548;-68
2022/03/17 05:57:51;;;;;;;69.67;44.33;;;6.70;99.90;;;;;;5115787;28;20570;-68
2022/03/17 06:00:23;;;;;;;67.73;44.70;;;6.70;99.90;;;;;;5115857;28;20779;-68
2022/03/17 06:02:50;;;;;;;69.27;43.93;;;6.70;99.90;;;;;;5115408;28;20436;-70
2022/03/17 06:05:18;;;;;;;67.17;42.87;;;6.80;99.90;;;;;;5115797;28;20762;-70
2022/03/17 06:07:47;;;;;;;68.20;44.30;;;6.80;99.90;;;;;;5115759;28;20851;-69
2022/03/17 06:10:15;;;;;;;69.33;42.90;;;6.80;99.90;;;;;;5115865;28;20471;-68
2022/03/17 06:12:43;;;;;;;66.43;43.67;;;6.90;99.90;;;;;;5115638;28;20467;-69
2022/03/17 06:15:11;;;;;;;67.57;44.33;;;6.80;99.90;;;;;;5115733;28;20789;-68
2022/03/17 06:17:39;;;;;;;70.23;44.63;;;6.80;99.90;;;;;;5115744;28;20763;-70
2022/03/17 06:20:09;;;;;;;72.73;46.73;;;6.90;99.90;;;;;;5115450;28;20463;-70
2022/03/17 06:22:38;;;;;;;81.60;51.37;;;6.90;99.90;;;;;;5116821;28;20476;-70
2022/03/17 06:25:06;;;;;;;74.37;46.67;;;6.90;99.90;;;;;;5115922;28;20950;-69
2022/03/17 06:27:34;;;;;;;71.50;44.27;;;6.90;99.90;;;;;;5115615;28;20463;-70
2022/03/17 06:30:00;;;;;;;71.13;46.20;;;7.00;99.90;;;;;;5115926;28;20463;-68
2022/03/17 06:32:28;;;;;;;70.50;44.70;;;7.00;99.90;;;;;;5115378;28;20475;-70
2022/03/17 06:34:54;;;;;;;67.63;44.50;;;7.10;99.90;;;;;;5114488;28;20933;-69
2022/03/17 06:37:21;;;;;;;69.73;44.80;;;7.20;99.90;;;;;;5115252;28;20893;-70
2022/03/17 06:39:49;;;;;;;71.93;45.20;;;7.20;99.90;;;;;;5115148;28;20460;-69
2022/03/17 06:42:16;;;;;;;72.43;45.40;;;7.20;99.90;;;;;;5114994;28;20480;-70
2022/03/17 06:44:43;;;;;;;66.50;46.00;;;7.20;99.90;;;;;;5114919;28;20470;-69
2022/03/17 06:47:09;;;;;;;69.53;47.20;;;7.30;99.90;;;;;;5115025;28;20453;-69
2022/03/17 06:49:36;;;;;;;75.97;48.37;;;7.40;99.90;;;;;;5114596;28;20479;-69
2022/03/17 06:52:03;;;;;;;70.90;47.20;;;7.40;99.90;;;;;;5114502;28;20835;-70
2022/03/17 06:54:30;;;;;;;74.87;47.67;;;7.40;99.90;;;;;;5114632;28;20901;-69
2022/03/17 06:56:59;;;;;;;72.67;48.67;;;7.50;99.90;;;;;;5114932;28;20787;-69
2022/03/17 06:59:26;;;;;;;70.80;46.50;;;7.40;99.90;;;;;;5114943;28;20987;-69
2022/03/17 07:01:52;;;;;;;74.80;46.33;;;7.50;99.90;;;;;;5114556;28;20491;-70
2022/03/17 07:04:19;;;;;;;74.80;47.50;;;7.50;99.90;;;;;;5114713;28;20452;-69
2022/03/17 07:06:46;;;;;;;73.93;48.53;;;7.60;99.90;;;;;;5114724;28;20805;-70
2022/03/17 07:09:13;;;;;;;90.83;55.70;;;7.70;99.90;;;;;;5114935;28;20543;-69
2022/03/17 07:11:40;;;;;;;80.07;48.80;;;7.80;99.90;;;;;;5114626;28;20547;-70
2022/03/17 07:14:08;;;;;;;73.70;45.83;;;7.80;99.90;;;;;;5114225;28;20953;-69
2022/03/17 07:16:34;;;;;;;72.77;48.33;;;7.80;99.90;;;;;;5114520;28;20452;-69
2022/03/17 07:19:01;;;;;;;71.60;46.87;;;7.90;99.90;;;;;;5114617;28;20906;-69
2022/03/17 07:21:28;;;;;;;76.97;49.20;;;7.90;99.90;;;;;;5114601;28;20491;-69
2022/03/17 07:23:54;;;;;;;70.00;47.70;;;7.90;99.90;;;;;;5114883;28;20513;-69
2022/03/17 07:26:21;;;;;;;81.50;50.07;;;8.00;99.90;;;;;;5114803;28;20532;-69
2022/03/17 07:28:49;;;;;;;74.40;46.80;;;8.00;99.90;;;;;;5114168;28;20463;-70
2022/03/17 07:31:17;;;;;;;74.70;48.10;;;8.10;99.90;;;;;;5114669;28;20452;-69
2022/03/17 07:33:45;;;;;;;71.57;47.73;;;8.10;99.90;;;;;;5114468;28;20464;-68
2022/03/17 07:36:12;;;;;;;81.27;48.43;;;8.10;99.90;;;;;;5114546;28;20525;-69
2022/03/17 07:38:38;;;;;;;78.23;48.97;;;8.10;99.90;;;;;;5114324;28;20452;-69
2022/03/17 07:41:05;;;;;;;68.90;47.40;;;8.20;99.90;;;;;;5113820;28;20861;-70
2022/03/17 07:43:32;;;;;;;76.70;48.77;;;8.30;99.90;;;;;;5114306;28;20467;-69
2022/03/17 07:45:58;;;;;;;70.67;46.00;;;8.30;99.90;;;;;;5114475;28;20468;-70
2022/03/17 07:48:26;;;;;;;81.53;49.07;;;8.40;99.90;;;;;;5118558;28;20467;-69
2022/03/17 07:50:53;;;;;;;74.60;47.00;;;8.40;99.90;;;;;;5117854;28;20452;-69
2022/03/17 07:53:20;;;;;;;72.97;47.90;;;8.40;99.90;;;;;;5117531;28;20821;-70
2022/03/17 07:55:47;;;;;;;67.97;46.20;;;8.40;99.90;;;;;;5118280;28;20452;-69
2022/03/17 07:58:15;;;;;;;77.37;48.37;;;8.40;99.90;;;;;;5118121;28;20499;-70
2022/03/17 08:00:42;;;;;;;75.13;48.17;;;8.40;99.90;;;;;;5119137;28;20559;-68
2022/03/17 08:03:09;;;;;;;69.90;48.00;;;8.50;99.90;;;;;;5118235;28;20480;-70
2022/03/17 08:05:38;;;;;;;72.60;49.60;;;8.50;99.90;;;;;;5118311;28;20547;-69
2022/03/17 08:08:05;;;;;;;67.20;47.27;;;8.60;99.90;;;;;;5118212;28;20546;-69
2022/03/17 08:10:32;;;;;;;64.37;45.87;;;8.60;99.90;;;;;;5117789;28;20455;-68
2022/03/17 08:13:02;;;;;;;76.30;51.33;;;8.70;99.90;;;;;;5118183;28;20513;-68
2022/03/17 08:15:29;;;;;;;68.27;46.07;;;8.80;99.90;;;;;;5117808;28;20456;-68
2022/03/17 08:17:56;;;;;;;74.10;48.20;;;8.80;99.90;;;;;;5118392;28;20855;-69
2022/03/17 08:20:23;;;;;;;68.50;47.93;;;8.80;99.90;;;;;;5117851;28;20448;-68
2022/03/17 08:22:51;;;;;;;69.03;45.43;;;8.80;99.90;;;;;;5117850;28;20476;-68
2022/03/17 08:25:18;;;;;;;76.73;48.93;;;8.80;99.90;;;;;;5117712;28;20456;-69
2022/03/17 08:27:45;;;;;;;75.83;47.60;;;8.80;99.90;;;;;;5118314;28;20914;-68
2022/03/17 08:30:12;;;;;;;75.20;49.10;;;8.90;99.90;;;;;;5117838;28;20793;-68
2022/03/17 08:32:40;;;;;;;70.17;48.10;;;8.90;99.90;;;;;;5117602;28;20885;-68
2022/03/17 08:35:08;;;;;;;74.70;50.80;;;9.00;99.90;;;;;;5117583;28;20488;-68
2022/03/17 08:37:39;;;;;;;69.73;48.23;;;9.00;99.90;;;;;;5117806;28;20464;-68
2022/03/17 08:40:08;;;;;;;72.00;47.37;;;9.10;99.90;;;;;;5117429;28;20464;-69
2022/03/17 08:42:36;;;;;;;70.80;47.70;;;9.10;99.90;;;;;;5117433;28;20807;-68
2022/03/17 08:49:18;;;;;;;74.13;46.77;;;9.20;99.90;;;;;;5117376;28;20453;-68
2022/03/17 08:50:34;;;;;;;75.10;49.90;;;9.40;99.90;;;;;;5117542;28;20545;-69
2022/03/17 08:53:00;;;;;;;75.87;49.43;;;9.40;99.90;;;;;;5116792;28;20492;-68
2022/03/17 08:55:29;;;;;;;69.90;46.73;;;9.50;99.90;;;;;;5117092;28;20926;-69
2022/03/17 08:57:55;;;;;;;68.40;45.50;;;9.50;99.90;;;;;;5116018;28;20468;-69
2022/03/17 09:00:23;;;;;;;68.20;46.27;;;9.60;99.90;;;;;;5117020;28;20491;-69
2022/03/17 09:02:55;;;;;;;69.50;46.33;;;9.60;99.90;;;;;;5118153;28;20476;-69
2022/03/17 09:05:21;;;;;;;75.67;48.10;;;9.60;99.90;;;;;;5119893;28;20467;-69
2022/03/17 09:07:48;;;;;;;72.27;46.97;;;9.60;99.90;;;;;;5117682;28;20765;-69
2022/03/17 09:10:15;;;;;;;70.90;46.73;;;9.70;99.90;;;;;;5117324;28;20456;-68
2022/03/17 09:12:43;;;;;;;68.60;46.03;;;9.70;99.90;;;;;;5117180;28;20494;-69
2022/03/17 09:15:11;;;;;;;67.23;46.63;;;9.70;99.90;;;;;;5116879;28;20468;-68
2022/03/17 09:17:41;;;;;;;67.03;46.00;;;9.80;99.90;;;;;;5116862;28;20463;-69
2022/03/17 09:20:15;;;;;;;73.50;47.40;;;9.70;99.90;;;;;;5116449;28;20490;-68
2022/03/17 09:22:42;;;;;;;67.37;45.97;;;9.80;99.90;;;;;;5116783;28;20477;-69
2022/03/17 09:25:09;;;;;;;67.73;45.20;;;9.80;99.90;;;;;;5117102;28;20457;-68
2022/03/17 09:27:36;;;;;;;64.57;43.20;;;9.70;99.90;;;;;;5116158;28;20491;-68
2022/03/17 09:30:05;;;;;;;66.67;45.87;;;9.70;99.90;;;;;;5116631;28;20456;-68
2022/03/17 09:32:33;;;;;;;78.37;48.13;;;9.80;99.90;;;;;;5117059;28;20991;-68
2022/03/17 09:34:59;;;;;;;70.97;46.33;;;9.80;99.90;;;;;;5117606;28;20476;-68
2022/03/17 09:37:27;;;;;;;64.30;45.60;;;9.90;99.90;;;;;;5117702;28;20885;-70
2022/03/17 09:39:53;;;;;;;66.90;47.33;;;10.00;99.90;;;;;;5117066;28;20914;-69
2022/03/17 09:42:21;;;;;;;66.13;46.00;;;10.10;99.90;;;;;;5117547;28;20472;-69
2022/03/17 09:44:52;;;;;;;70.07;47.53;;;10.20;99.90;;;;;;5117685;28;20464;-69
2022/03/17 09:47:25;;;;;;;67.57;46.27;;;10.30;99.90;;;;;;5117519;28;20519;-68
2022/03/17 09:49:53;;;;;;;64.30;44.53;;;10.30;99.90;;;;;;5117038;28;20493;-68
2022/03/17 09:52:20;;;;;;;66.00;45.80;;;10.40;99.90;;;;;;5115946;28;20953;-68
2022/03/17 09:54:48;;;;;;;65.93;45.17;;;10.40;99.90;;;;;;5116255;28;20463;-69
2022/03/17 09:57:16;;;;;;;64.37;48.60;;;10.50;99.90;;;;;;5116419;28;20457;-69
2022/03/17 09:59:44;;;;;;;65.67;44.83;;;10.50;99.90;;;;;;5116150;28;20456;-69
2022/03/17 10:02:16;;;;;;;64.23;46.00;;;10.60;99.90;;;;;;5116253;28;20973;-69
2022/03/17 10:04:45;;;;;;;75.30;50.10;;;10.60;99.90;;;;;;5115553;28;20440;-69
2022/03/17 10:07:12;;;;;;;60.37;43.10;;;10.60;99.90;;;;;;5115686;28;20787;-69
2022/03/17 10:09:39;;;;;;;61.33;44.33;;;10.60;99.90;;;;;;5114943;28;20476;-68
2022/03/17 10:12:09;;;;;;;63.93;42.63;;;10.70;99.90;;;;;;5115353;28;20756;-68
2022/03/17 10:14:38;;;;;;;58.03;43.30;;;10.70;99.90;;;;;;5115303;28;20453;-68
2022/03/17 10:17:06;;;;;;;59.73;43.73;;;10.70;99.90;;;;;;5115378;28;20786;-70
2022/03/17 10:19:33;;;;;;;56.60;42.30;;;10.80;99.90;;;;;;5115511;28;20488;-68
2022/03/17 10:22:09;;;;;;;61.83;43.80;;;10.80;99.90;;;;;;5115400;28;20491;-68
2022/03/17 10:24:36;;;;;;;56.77;40.73;;;10.80;99.90;;;;;;5115575;28;20444;-68
2022/03/17 10:27:04;;;;;;;55.33;40.10;;;10.90;99.90;;;;;;5114854;28;20534;-68
2022/03/17 10:29:30;;;;;;;57.67;42.80;;;11.00;99.90;;;;;;5114943;28;20452;-68
2022/03/17 10:32:01;;;;;;;59.93;39.97;;;11.00;99.90;;;;;;5114948;28;20452;-69
2022/03/17 10:34:29;;;;;;;62.47;44.50;;;11.10;99.90;;;;;;5115199;28;20536;-68
2022/03/17 10:37:07;;;;;;;57.00;41.83;;;11.10;99.90;;;;;;5114724;28;20951;-68
2022/03/17 10:39:42;;;;;;;56.70;41.10;;;11.10;99.90;;;;;;5114851;28;20919;-68
2022/03/17 10:42:14;;;;;;;64.80;40.27;;;11.20;99.90;;;;;;5115126;28;20463;-68
2022/03/17 10:44:45;;;;;;;60.47;40.80;;;11.30;99.90;;;;;;5114521;28;20467;-68
2022/03/17 10:47:12;;;;;;;56.30;41.07;;;11.30;99.90;;;;;;5114705;28;20436;-69
2022/03/17 10:49:39;;;;;;;59.60;43.30;;;11.50;99.90;;;;;;5115087;28;20460;-69
2022/03/17 10:52:06;;;;;;;62.87;41.93;;;11.60;99.90;;;;;;5114239;28;20472;-69
2022/03/17 10:54:33;;;;;;;58.27;42.17;;;11.80;99.90;;;;;;5114845;28;20811;-68
2022/03/17 10:57:04;;;;;;;57.60;42.13;;;11.90;99.90;;;;;;5114812;28;20521;-68
2022/03/17 10:59:39;;;;;;;55.53;42.07;;;11.90;99.90;;;;;;5115850;28;20784;-69
2022/03/17 11:02:09;;;;;;;59.50;42.00;;;12.00;99.90;;;;;;5116253;28;20500;-69
2022/03/17 11:04:37;;;;;;;62.07;42.33;;;12.10;99.90;;;;;;5114679;28;20510;-69
2022/03/17 11:07:06;;;;;;;55.87;39.47;;;12.00;99.90;;;;;;5114440;28;20926;-68
2022/03/17 11:09:36;;;;;;;63.63;41.80;;;12.00;99.90;;;;;;5114543;28;20824;-68
2022/03/17 11:12:05;;;;;;;54.77;40.70;;;12.10;99.90;;;;;;5114885;28;20457;-68
2022/03/17 11:14:32;;;;;;;58.87;40.13;;;12.10;99.90;;;;;;5114942;28;20479;-69
2022/03/17 11:17:03;;;;;;;68.13;41.40;;;12.20;99.90;;;;;;5114470;28;20452;-69
2022/03/17 11:19:30;;;;;;;61.20;41.77;;;12.30;99.90;;;;;;5114647;28;20479;-69
2022/03/17 11:22:08;;;;;;;107.17;42.90;;;12.30;99.90;;;;;;5116093;28;20922;-69
2022/03/17 11:24:35;;;;;;;63.67;44.20;;;12.40;99.90;;;;;;5118863;28;20475;-68
2022/03/17 11:27:11;;;;;;;51.40;38.90;;;12.40;99.90;;;;;;5119024;28;20489;-68
2022/03/17 11:29:40;;;;;;;55.93;41.80;;;12.40;99.90;;;;;;5118415;28;20485;-69
2022/03/17 11:32:08;;;;;;;55.80;40.83;;;12.40;99.90;;;;;;5118661;28;20495;-69
2022/03/17 11:34:46;;;;;;;53.30;37.80;;;12.40;99.90;;;;;;5118975;28;20463;-69
2022/03/17 11:37:33;;;;;;;51.87;38.50;;;12.40;99.90;;;;;;5119589;28;20513;-69
2022/03/17 11:40:09;;;;;;;51.90;38.60;;;12.40;99.90;;;;;;5119707;28;20440;-69
2022/03/17 11:42:40;;;;;;;52.13;39.60;;;12.40;99.90;;;;;;5120094;28;20464;-69
2022/03/17 11:45:40;;;;;;;47.77;36.37;;;12.50;99.90;;;;;;5119177;28;20896;-68
2022/03/17 11:48:12;;;;;;;58.80;39.30;;;12.40;99.90;;;;;;5118439;28;20455;-69
2022/03/17 11:50:50;;;;;;;48.67;37.70;;;12.40;99.90;;;;;;5118980;28;20502;-69
2022/03/17 11:53:39;;;;;;;52.40;37.33;;;12.50;99.90;;;;;;5117925;28;20476;-69
2022/03/17 11:56:07;;;;;;;49.23;37.83;;;12.60;99.90;;;;;;5118922;28;20441;-69
2022/03/17 11:58:44;;;;;;;50.40;38.00;;;12.60;99.90;;;;;;5118224;28;20452;-69
2022/03/17 12:01:13;;;;;;;52.00;37.57;;;12.60;99.90;;;;;;5119716;28;20447;-70
2022/03/17 12:03:44;;;;;;;53.67;37.33;;;12.70;99.90;;;;;;5121699;28;20472;-70
2022/03/17 12:06:17;;;;;;;49.37;36.23;;;12.80;99.90;;;;;;5120953;28;20463;-69
2022/03/17 12:08:51;;;;;;;58.23;35.87;;;12.90;99.90;;;;;;5124455;28;20456;-68
2022/03/17 12:11:22;;;;;;;47.87;37.77;;;12.90;99.90;;;;;;5122345;28;20471;-69
2022/03/17 12:14:17;;;;;;;51.93;36.30;;;12.90;99.90;;;;;;5118156;28;20883;-69
2022/03/17 12:16:46;;;;;;;45.80;35.57;;;12.90;99.90;;;;;;5117552;28;20554;-68
2022/03/17 12:19:25;;;;;;;47.47;35.73;;;13.00;99.90;;;;;;5117544;28;20452;-68
2022/03/17 12:22:35;;;;;;;46.50;34.90;;;13.10;99.90;;;;;;5117497;28;20898;-68
2022/03/17 12:25:03;;;;;;;47.20;34.10;;;13.10;99.90;;;;;;5117820;28;20437;-68
2022/03/17 12:27:34;;;;;;;45.90;34.43;;;13.10;99.90;;;;;;5118927;28;20457;-69
2022/03/17 12:30:06;;;;;;;46.40;36.00;;;13.00;99.90;;;;;;5120866;28;20770;-68
2022/03/17 12:32:35;;;;;;;47.77;34.60;;;13.00;99.90;;;;;;5117232;28;20432;-68
2022/03/17 12:35:03;;;;;;;50.50;37.47;;;13.00;99.90;;;;;;5117344;28;20484;-68
2022/03/17 12:37:32;;;;;;;53.13;34.10;;;12.90;99.90;;;;;;5117926;28;20456;-68
2022/03/17 12:40:00;;;;;;;51.27;35.53;;;12.90;99.90;;;;;;5116945;28;20896;-68
2022/03/17 12:42:29;;;;;;;49.83;34.80;;;12.90;99.90;;;;;;5116933;28;20456;-68
2022/03/17 12:44:59;;;;;;;45.13;35.17;;;13.00;99.90;;;;;;5117684;28;20839;-68
2022/03/17 12:47:28;;;;;;;46.83;33.90;;;13.00;99.90;;;;;;5117220;28;20820;-68
2022/03/17 12:49:56;;;;;;;47.17;33.77;;;13.10;99.90;;;;;;5117004;28;20836;-68